createdAt,value
2023-01-29T00:00:48.255Z,47.15
2023-01-29T00:01:51.727Z,47.89
2023-01-29T00:02:54.521Z,48.06
2023-01-29T00:03:57.917Z,47.80
2023-01-29T00:05:09.964Z,47.95
2023-01-29T00:06:20.183Z,47.70
2023-01-29T00:07:23.877Z,48.30
2023-01-29T00:08:27.537Z,47.92
2023-01-29T00:09:32.361Z,47.99
2023-01-29T00:10:35.559Z,48.72
2023-01-29T00:11:39.376Z,48.60
2023-01-29T00:12:43.843Z,48.65
2023-01-29T00:13:48.137Z,48.31
2023-01-29T00:14:51.078Z,48.31
2023-01-29T00:15:56.680Z,48.90
2023-01-29T00:16:59.962Z,47.96
2023-01-29T00:18:02.330Z,47.96
2023-01-29T00:19:06.507Z,48.26
2023-01-29T00:20:10.752Z,48.58
2023-01-29T00:21:15.409Z,48.42
2023-01-29T00:22:18.093Z,48.04
2023-01-29T00:23:21.489Z,47.81
2023-01-29T00:24:25.110Z,47.74
2023-01-29T00:25:27.703Z,48.73
2023-01-29T00:26:31.006Z,48.25
2023-01-29T00:27:33.454Z,48.52
2023-01-29T00:28:38.945Z,48.36
2023-01-29T00:29:41.873Z,48.53
2023-01-29T00:30:45.766Z,48.26
2023-01-29T00:31:48.317Z,48.44
2023-01-29T00:32:51.556Z,48.50
2023-01-29T00:33:53.801Z,48.14
2023-01-29T00:34:57.442Z,48.65
2023-01-29T00:36:03.104Z,49.00
2023-01-29T00:37:09.047Z,48.64
2023-01-29T00:38:11.529Z,48.12
2023-01-29T00:39:15.443Z,48.68
2023-01-29T00:40:18.331Z,48.07
2023-01-29T00:41:40.522Z,47.63
2023-01-29T00:43:06.122Z,46.93
2023-01-29T00:44:28.599Z,48.08
2023-01-29T00:45:31.928Z,48.97
2023-01-29T00:46:34.453Z,48.29
2023-01-29T00:47:37.731Z,48.23
2023-01-29T00:48:39.948Z,48.46
2023-01-29T00:49:43.354Z,48.57
2023-01-29T00:50:46.170Z,49.25
2023-01-29T00:52:10.629Z,48.92
2023-01-29T00:53:13.952Z,49.09
2023-01-29T00:54:16.754Z,48.54
2023-01-29T00:55:20.175Z,48.30
2023-01-29T00:56:22.457Z,47.75
2023-01-29T00:57:27.419Z,47.77
2023-01-29T00:58:34.404Z,47.44
2023-01-29T00:59:39.353Z,47.98
2023-01-29T01:00:41.924Z,48.62
2023-01-29T01:02:02.749Z,48.76
2023-01-29T01:03:09.873Z,48.77
2023-01-29T01:04:12.732Z,49.67
2023-01-29T01:05:18.369Z,49.83
2023-01-29T01:06:22.139Z,49.95
2023-01-29T01:07:24.827Z,49.79
2023-01-29T01:09:00.112Z,49.85
2023-01-29T01:10:20.831Z,50.16
2023-01-29T01:11:24.321Z,50.74
2023-01-29T01:12:28.624Z,50.32
2023-01-29T01:13:33.737Z,49.78
2023-01-29T01:14:37.319Z,51.02
2023-01-29T01:15:41.475Z,51.06
2023-01-29T01:16:45.259Z,52.18
2023-01-29T01:17:49.703Z,51.21
2023-01-29T01:18:52.558Z,50.80
2023-01-29T01:19:56.271Z,51.35
2023-01-29T01:20:59.756Z,51.90
2023-01-29T01:22:05.064Z,52.22
2023-01-29T01:23:07.528Z,52.10
2023-01-29T01:24:11.034Z,52.28
2023-01-29T01:25:15.535Z,52.04
2023-01-29T01:26:17.938Z,52.23
2023-01-29T01:27:21.488Z,52.56
2023-01-29T01:28:23.985Z,52.48
2023-01-29T01:29:28.314Z,52.50
2023-01-29T01:30:33.378Z,52.95
2023-01-29T01:31:36.863Z,53.15
2023-01-29T01:32:39.541Z,52.29
2023-01-29T01:33:42.992Z,52.84
2023-01-29T01:34:45.701Z,53.33
2023-01-29T01:35:49.474Z,53.44
2023-01-29T01:36:52.267Z,53.35
2023-01-29T01:37:55.752Z,53.53
2023-01-29T01:38:58.203Z,54.01
2023-01-29T01:40:01.452Z,54.03
2023-01-29T01:41:04.169Z,53.59
2023-01-29T01:42:13.783Z,53.32
2023-01-29T01:43:16.628Z,53.98
2023-01-29T01:44:53.586Z,53.59
2023-01-29T01:45:58.554Z,53.96
2023-01-29T01:47:02.015Z,54.06
2023-01-29T01:48:08.815Z,53.78
2023-01-29T01:49:15.518Z,54.23
2023-01-29T01:50:23.219Z,53.50
2023-01-29T01:51:29.319Z,53.76
2023-01-29T01:52:33.892Z,54.67
2023-01-29T01:53:41.636Z,54.82
2023-01-29T01:54:45.777Z,55.08
2023-01-29T01:55:51.715Z,53.76
2023-01-29T01:57:04.993Z,54.12
2023-01-29T01:58:10.638Z,53.81
2023-01-29T01:59:18.009Z,53.76
2023-01-29T02:00:22.460Z,54.13
2023-01-29T02:01:29.228Z,54.05
2023-01-29T02:02:50.764Z,54.12
2023-01-29T02:04:15.336Z,53.34
2023-01-29T02:05:36.384Z,53.58
2023-01-29T02:06:59.678Z,52.87
2023-01-29T02:08:20.263Z,53.10
2023-01-29T02:09:35.072Z,53.75
2023-01-29T02:10:42.555Z,54.12
2023-01-29T02:11:46.363Z,53.84
2023-01-29T02:12:48.974Z,53.06
2023-01-29T02:13:54.769Z,53.02
2023-01-29T02:14:57.903Z,52.74
2023-01-29T02:16:02.720Z,53.84
2023-01-29T02:17:08.294Z,54.14
2023-01-29T02:18:11.849Z,54.62
2023-01-29T02:19:33.344Z,55.11
2023-01-29T02:20:36.029Z,55.11
2023-01-29T02:21:55.678Z,55.53
2023-01-29T02:23:16.194Z,54.41
2023-01-29T02:24:58.706Z,54.64
2023-01-29T02:26:36.788Z,55.79
2023-01-29T02:28:21.455Z,56.19
2023-01-29T02:29:34.706Z,55.38
2023-01-29T02:30:44.344Z,55.40
2023-01-29T02:31:56.227Z,55.53
2023-01-29T02:33:07.721Z,55.99
2023-01-29T02:34:21.699Z,55.95
2023-01-29T02:35:32.154Z,56.47
2023-01-29T02:36:41.371Z,56.28
2023-01-29T02:37:56.669Z,56.91
2023-01-29T02:39:07.791Z,55.49
2023-01-29T02:40:19.118Z,55.38
2023-01-29T02:41:27.213Z,55.51
2023-01-29T02:42:37.320Z,56.17
2023-01-29T02:43:47.790Z,55.74
2023-01-29T02:44:59.461Z,55.13
2023-01-29T02:46:08.485Z,54.69
2023-01-29T02:47:19.538Z,54.49
2023-01-29T02:48:26.050Z,54.44
2023-01-29T02:49:34.998Z,54.43
2023-01-29T02:50:44.763Z,53.72
2023-01-29T02:51:57.342Z,53.66
2023-01-29T02:53:06.392Z,52.83
2023-01-29T02:54:16.934Z,52.95
2023-01-29T02:55:24.516Z,53.47
2023-01-29T02:56:34.357Z,53.24
2023-01-29T02:57:40.831Z,52.38
2023-01-29T02:58:47.603Z,52.85
2023-01-29T02:59:57.200Z,53.52
2023-01-29T03:01:04.034Z,53.02
2023-01-29T03:02:12.154Z,53.39
2023-01-29T03:03:18.708Z,52.03
2023-01-29T03:04:25.986Z,52.46
2023-01-29T03:05:34.133Z,52.37
2023-01-29T03:06:43.404Z,52.73
2023-01-29T03:07:52.521Z,52.04
2023-01-29T03:09:00.421Z,51.54
2023-01-29T03:10:05.036Z,52.32
2023-01-29T03:11:15.316Z,53.24
2023-01-29T03:12:33.915Z,52.65
2023-01-29T03:13:45.484Z,52.43
2023-01-29T03:15:10.114Z,52.57
2023-01-29T03:16:21.851Z,53.31
2023-01-29T03:17:33.089Z,53.92
2023-01-29T03:18:45.978Z,55.67
2023-01-29T03:19:49.772Z,55.20
2023-01-29T03:20:58.557Z,55.55
2023-01-29T03:22:06.467Z,55.68
2023-01-29T03:23:15.770Z,55.63
2023-01-29T03:24:41.041Z,55.59
2023-01-29T03:26:03.800Z,55.50
2023-01-29T03:27:30.988Z,55.96
2023-01-29T03:28:52.917Z,55.52
2023-01-29T03:30:16.103Z,55.75
2023-01-29T03:31:38.770Z,55.82
2023-01-29T03:32:44.252Z,55.20
2023-01-29T03:33:50.865Z,55.17
2023-01-29T03:34:59.412Z,54.64
2023-01-29T03:36:09.244Z,54.60
2023-01-29T03:37:19.334Z,54.42
2023-01-29T03:38:21.758Z,54.17
2023-01-29T03:39:28.546Z,53.90
2023-01-29T03:40:37.093Z,54.16
2023-01-29T03:41:47.796Z,54.78
2023-01-29T03:42:59.461Z,54.42
2023-01-29T03:44:14.139Z,54.51
2023-01-29T03:45:22.270Z,53.63
2023-01-29T03:46:31.550Z,53.40
2023-01-29T03:47:43.888Z,53.37
2023-01-29T03:48:57.250Z,53.75
2023-01-29T03:50:03.300Z,54.03
2023-01-29T03:51:17.952Z,53.94
2023-01-29T03:52:24.008Z,53.42
2023-01-29T03:53:32.160Z,54.50
2023-01-29T03:54:43.146Z,54.67
2023-01-29T03:55:56.020Z,54.72
2023-01-29T03:57:05.339Z,55.15
2023-01-29T03:58:22.771Z,54.89
2023-01-29T03:59:35.851Z,55.25
2023-01-29T04:00:44.489Z,54.98
2023-01-29T04:01:53.150Z,54.87
2023-01-29T04:03:04.578Z,54.51
2023-01-29T04:04:14.508Z,53.89
2023-01-29T04:05:22.517Z,55.01
2023-01-29T04:06:30.521Z,55.61
2023-01-29T04:07:36.811Z,55.71
2023-01-29T04:08:48.549Z,55.38
2023-01-29T04:09:56.286Z,54.81
2023-01-29T04:11:02.166Z,54.77
2023-01-29T04:12:09.833Z,54.29
2023-01-29T04:13:15.405Z,54.13
2023-01-29T04:14:19.618Z,53.98
2023-01-29T04:15:25.546Z,53.94
2023-01-29T04:16:32.784Z,53.18
2023-01-29T04:17:40.613Z,54.14
2023-01-29T04:18:46.713Z,52.73
2023-01-29T04:19:49.273Z,52.40
2023-01-29T04:20:53.634Z,53.72
2023-01-29T04:22:04.349Z,54.31
2023-01-29T04:23:08.718Z,55.55
2023-01-29T04:24:13.963Z,56.12
2023-01-29T04:25:26.773Z,54.99
2023-01-29T04:26:48.146Z,55.34
2023-01-29T04:27:58.813Z,54.66
2023-01-29T04:29:19.360Z,54.15
2023-01-29T04:30:33.833Z,54.48
2023-01-29T04:31:46.960Z,53.57
2023-01-29T04:33:03.503Z,54.13
2023-01-29T04:34:21.027Z,53.23
2023-01-29T04:35:32.043Z,53.46
2023-01-29T04:36:42.081Z,53.26
2023-01-29T04:37:51.101Z,53.47
2023-01-29T04:39:05.607Z,53.17
2023-01-29T04:40:32.344Z,54.17
2023-01-29T04:41:42.311Z,53.83
2023-01-29T04:42:51.893Z,53.08
2023-01-29T04:44:02.989Z,52.75
2023-01-29T04:45:16.731Z,52.71
2023-01-29T04:46:26.169Z,53.94
2023-01-29T04:47:35.921Z,53.85
2023-01-29T04:48:53.110Z,54.40
2023-01-29T04:50:03.643Z,54.81
2023-01-29T04:51:13.783Z,55.04
2023-01-29T04:52:25.342Z,54.22
2023-01-29T04:53:37.323Z,54.31
2023-01-29T04:54:56.166Z,54.74
2023-01-29T04:56:08.022Z,53.92
2023-01-29T04:57:17.514Z,54.13
2023-01-29T04:58:28.851Z,53.79
2023-01-29T04:59:37.937Z,53.51
2023-01-29T05:00:43.214Z,54.46
2023-01-29T05:01:47.863Z,54.43
2023-01-29T05:02:52.483Z,55.57
2023-01-29T05:03:59.567Z,56.75
2023-01-29T05:05:03.954Z,55.82
2023-01-29T05:06:08.270Z,55.48
2023-01-29T05:07:15.272Z,55.48
2023-01-29T05:08:20.708Z,55.76
2023-01-29T05:09:25.663Z,56.52
2023-01-29T05:10:28.489Z,56.65
2023-01-29T05:11:33.798Z,56.65
2023-01-29T05:12:38.731Z,57.77
2023-01-29T05:13:44.381Z,57.98
2023-01-29T05:14:48.488Z,57.84
2023-01-29T05:15:57.463Z,57.61
2023-01-29T05:17:04.432Z,57.60
2023-01-29T05:18:10.368Z,57.69
2023-01-29T05:19:15.790Z,57.35
2023-01-29T05:20:19.480Z,56.83
2023-01-29T05:21:23.593Z,57.42
2023-01-29T05:22:28.676Z,57.93
2023-01-29T05:23:31.240Z,58.02
2023-01-29T05:24:34.518Z,57.26
2023-01-29T05:25:37.105Z,57.37
2023-01-29T05:26:59.011Z,58.95
2023-01-29T05:28:12.020Z,57.19
2023-01-29T05:29:14.887Z,57.35
2023-01-29T05:30:19.035Z,57.06
2023-01-29T05:31:21.478Z,56.91
2023-01-29T05:32:24.849Z,56.52
2023-01-29T05:33:29.633Z,56.84
2023-01-29T05:34:34.311Z,57.43
2023-01-29T05:35:37.672Z,57.01
2023-01-29T05:36:40.025Z,56.74
2023-01-29T05:37:43.452Z,57.07
2023-01-29T05:38:45.947Z,57.67
2023-01-29T05:39:49.471Z,57.50
2023-01-29T05:40:52.150Z,57.38
2023-01-29T05:41:55.724Z,57.48
2023-01-29T05:42:58.025Z,56.65
2023-01-29T05:44:01.334Z,57.45
2023-01-29T05:45:03.944Z,57.67
2023-01-29T05:46:07.624Z,57.46
2023-01-29T05:47:09.959Z,57.52
2023-01-29T05:48:13.518Z,57.17
2023-01-29T05:49:17.405Z,58.00
2023-01-29T05:50:22.293Z,57.34
2023-01-29T05:51:24.797Z,57.92
2023-01-29T05:52:28.294Z,57.90
2023-01-29T05:53:31.914Z,57.31
2023-01-29T05:54:35.304Z,57.28
2023-01-29T05:55:37.631Z,57.79
2023-01-29T05:56:41.005Z,57.47
2023-01-29T05:57:43.777Z,57.87
2023-01-29T05:58:47.427Z,57.95
2023-01-29T05:59:49.778Z,58.45
2023-01-29T06:00:53.310Z,58.74
2023-01-29T06:01:56.991Z,58.25
2023-01-29T06:02:59.381Z,58.11
2023-01-29T06:04:02.907Z,58.02
2023-01-29T06:05:05.742Z,58.59
2023-01-29T06:06:11.353Z,58.09
2023-01-29T06:07:14.038Z,58.47
2023-01-29T06:08:17.607Z,58.72
2023-01-29T06:09:19.949Z,58.63
2023-01-29T06:10:23.335Z,58.58
2023-01-29T06:11:25.935Z,58.37
2023-01-29T06:12:29.593Z,58.06
2023-01-29T06:13:31.953Z,58.63
2023-01-29T06:14:35.434Z,58.08
2023-01-29T06:15:40.454Z,59.08
2023-01-29T06:16:43.930Z,58.81
2023-01-29T06:17:46.247Z,58.46
2023-01-29T06:18:49.952Z,57.79
2023-01-29T06:19:52.509Z,57.63
2023-01-29T06:20:56.070Z,57.07
2023-01-29T06:21:59.953Z,56.55
2023-01-29T06:23:03.755Z,56.84
2023-01-29T06:24:06.604Z,56.78
2023-01-29T06:25:11.084Z,56.85
2023-01-29T06:26:16.018Z,56.69
2023-01-29T06:27:19.388Z,55.99
2023-01-29T06:28:22.242Z,56.24
2023-01-29T06:29:25.494Z,56.59
2023-01-29T06:30:28.581Z,56.81
2023-01-29T06:31:38.661Z,57.31
2023-01-29T06:32:41.847Z,56.99
2023-01-29T06:33:45.186Z,56.26
2023-01-29T06:34:49.467Z,56.01
2023-01-29T06:35:57.297Z,56.33
2023-01-29T06:37:00.991Z,56.52
2023-01-29T06:38:04.277Z,56.17
2023-01-29T06:39:06.426Z,56.33
2023-01-29T06:40:11.091Z,56.13
2023-01-29T06:41:17.144Z,56.05
2023-01-29T06:42:20.647Z,55.56
2023-01-29T06:43:23.748Z,56.26
2023-01-29T06:44:27.729Z,55.54
2023-01-29T06:45:30.173Z,55.26
2023-01-29T06:46:33.449Z,54.96
2023-01-29T06:47:36.028Z,54.95
2023-01-29T06:48:39.382Z,55.58
2023-01-29T06:49:41.669Z,55.78
2023-01-29T06:50:45.437Z,55.60
2023-01-29T06:51:47.710Z,55.96
2023-01-29T06:52:52.440Z,55.18
2023-01-29T06:53:56.285Z,55.89
2023-01-29T06:54:59.839Z,55.81
2023-01-29T06:56:02.409Z,55.90
2023-01-29T06:57:05.953Z,56.35
2023-01-29T06:58:08.938Z,57.53
2023-01-29T06:59:12.502Z,57.21
2023-01-29T07:00:16.126Z,57.70
2023-01-29T07:01:34.544Z,57.62
2023-01-29T07:02:38.416Z,57.27
2023-01-29T07:03:42.614Z,57.94
2023-01-29T07:04:44.948Z,57.29
2023-01-29T07:05:53.198Z,56.56
2023-01-29T07:06:55.503Z,56.37
2023-01-29T07:08:00.168Z,57.02
2023-01-29T07:09:03.916Z,57.15
2023-01-29T07:10:07.452Z,57.86
2023-01-29T07:11:11.286Z,57.33
2023-01-29T07:12:13.616Z,58.41
2023-01-29T07:13:17.445Z,57.95
2023-01-29T07:14:19.773Z,58.38
2023-01-29T07:15:23.210Z,58.05
2023-01-29T07:16:26.513Z,57.95
2023-01-29T07:17:29.931Z,58.89
2023-01-29T07:18:32.978Z,58.33
2023-01-29T07:19:36.406Z,58.53
2023-01-29T07:20:39.772Z,58.26
2023-01-29T07:21:43.145Z,57.96
2023-01-29T07:22:45.637Z,56.56
2023-01-29T07:23:50.758Z,56.89
2023-01-29T07:24:53.321Z,58.00
2023-01-29T07:25:56.794Z,57.29
2023-01-29T07:26:59.726Z,57.04
2023-01-29T07:28:03.406Z,57.22
2023-01-29T07:29:06.665Z,57.19
2023-01-29T07:30:09.982Z,57.43
2023-01-29T07:31:15.494Z,58.09
2023-01-29T07:32:17.887Z,58.13
2023-01-29T07:33:21.067Z,57.88
2023-01-29T07:34:23.649Z,58.10
2023-01-29T07:35:26.995Z,57.66
2023-01-29T07:36:30.018Z,57.58
2023-01-29T07:37:33.493Z,58.26
2023-01-29T07:38:35.962Z,58.29
2023-01-29T07:39:41.010Z,57.53
2023-01-29T07:40:43.641Z,58.01
2023-01-29T07:41:46.978Z,58.34
2023-01-29T07:42:49.265Z,58.23
2023-01-29T07:43:52.991Z,57.56
2023-01-29T07:44:55.261Z,57.36
2023-01-29T07:46:03.710Z,57.93
2023-01-29T07:47:06.398Z,57.96
2023-01-29T07:48:12.789Z,58.72
2023-01-29T07:49:15.633Z,58.44
2023-01-29T07:50:19.276Z,57.98
2023-01-29T07:51:21.608Z,57.90
2023-01-29T07:52:24.973Z,58.87
2023-01-29T07:53:27.733Z,58.38
2023-01-29T07:54:32.080Z,57.63
2023-01-29T07:55:35.893Z,57.11
2023-01-29T07:56:39.077Z,56.70
2023-01-29T07:57:41.257Z,56.49
2023-01-29T07:58:45.153Z,56.23
2023-01-29T07:59:47.598Z,56.38
2023-01-29T08:00:51.101Z,56.81
2023-01-29T08:01:53.283Z,56.06
2023-01-29T08:03:03.739Z,55.60
2023-01-29T08:04:05.971Z,55.89
2023-01-29T08:05:10.398Z,56.43
2023-01-29T08:06:13.583Z,56.15
2023-01-29T08:07:15.850Z,56.52
2023-01-29T08:08:19.481Z,56.33
2023-01-29T08:09:21.655Z,56.10
2023-01-29T08:10:24.951Z,55.76
2023-01-29T08:11:29.730Z,54.99
2023-01-29T08:12:32.075Z,55.19
2023-01-29T08:13:35.627Z,54.56
2023-01-29T08:14:37.849Z,54.88
2023-01-29T08:15:44.208Z,55.26
2023-01-29T08:16:46.571Z,55.49
2023-01-29T08:17:57.780Z,55.99
2023-01-29T08:19:02.775Z,56.87
2023-01-29T08:20:08.791Z,56.94
2023-01-29T08:21:13.007Z,56.39
2023-01-29T08:22:17.384Z,56.33
2023-01-29T08:23:19.647Z,55.18
2023-01-29T08:24:25.832Z,54.11
2023-01-29T08:25:35.609Z,53.24
2023-01-29T08:26:39.260Z,52.52
2023-01-29T08:27:42.817Z,51.81
2023-01-29T08:28:46.451Z,50.57
2023-01-29T08:29:48.817Z,49.78
2023-01-29T08:30:52.080Z,49.46
2023-01-29T08:31:54.531Z,49.07
2023-01-29T08:32:58.194Z,48.93
2023-01-29T08:34:00.503Z,49.08
2023-01-29T08:35:04.051Z,49.57
2023-01-29T08:36:08.313Z,50.90
2023-01-29T08:37:11.729Z,51.05
2023-01-29T08:38:14.102Z,52.83
2023-01-29T08:39:17.378Z,54.04
2023-01-29T08:40:20.152Z,54.25
2023-01-29T08:41:23.638Z,54.02
2023-01-29T08:42:27.479Z,54.84
2023-01-29T08:43:30.835Z,55.66
2023-01-29T08:44:34.524Z,55.28
2023-01-29T08:45:41.422Z,54.33
2023-01-29T08:46:44.722Z,53.47
2023-01-29T08:47:48.074Z,53.16
2023-01-29T08:48:51.707Z,52.02
2023-01-29T08:49:54.015Z,51.48
2023-01-29T08:50:58.879Z,50.36
2023-01-29T08:52:03.044Z,49.91
2023-01-29T08:53:09.305Z,49.71
2023-01-29T08:54:12.789Z,50.39
2023-01-29T08:55:15.385Z,50.79
2023-01-29T08:56:18.725Z,50.33
2023-01-29T08:57:21.481Z,50.21
2023-01-29T08:58:26.546Z,51.40
2023-01-29T08:59:30.612Z,51.20
2023-01-29T09:00:33.711Z,51.12
2023-01-29T09:01:37.440Z,50.43
2023-01-29T09:02:39.846Z,50.31
2023-01-29T09:03:44.529Z,50.22
2023-01-29T09:04:46.737Z,49.92
2023-01-29T09:05:50.062Z,50.27
2023-01-29T09:06:53.778Z,50.30
2023-01-29T09:07:57.087Z,51.34
2023-01-29T09:09:00.830Z,50.77
2023-01-29T09:10:03.671Z,50.43
2023-01-29T09:11:07.409Z,50.49
2023-01-29T09:12:10.015Z,50.18
2023-01-29T09:13:13.397Z,49.65
2023-01-29T09:14:17.300Z,49.73
2023-01-29T09:15:20.500Z,49.49
2023-01-29T09:16:22.881Z,48.96
2023-01-29T09:17:26.237Z,49.06
2023-01-29T09:18:30.031Z,48.48
2023-01-29T09:19:32.207Z,48.19
2023-01-29T09:20:37.928Z,48.74
2023-01-29T09:21:40.117Z,48.67
2023-01-29T09:22:43.429Z,49.15
2023-01-29T09:23:46.671Z,48.79
2023-01-29T09:24:49.073Z,48.36
2023-01-29T09:25:52.366Z,47.51
2023-01-29T09:26:54.733Z,46.58
2023-01-29T09:27:57.998Z,46.33
2023-01-29T09:29:01.519Z,45.64
2023-01-29T09:30:07.340Z,44.83
2023-01-29T09:31:10.584Z,45.10
2023-01-29T09:32:14.617Z,45.05
2023-01-29T09:33:18.431Z,44.45
2023-01-29T09:34:20.841Z,44.19
2023-01-29T09:35:24.832Z,44.79
2023-01-29T09:36:28.074Z,43.68
2023-01-29T09:37:30.522Z,42.80
2023-01-29T09:38:33.965Z,41.90
2023-01-29T09:39:36.426Z,42.59
2023-01-29T09:40:51.795Z,41.21
2023-01-29T09:42:01.775Z,40.24
2023-01-29T09:43:08.899Z,40.26
2023-01-29T09:44:18.189Z,40.05
2023-01-29T09:45:24.852Z,41.00
2023-01-29T09:46:36.007Z,41.42
2023-01-29T09:47:41.221Z,41.02
2023-01-29T09:48:47.818Z,40.10
2023-01-29T09:49:56.519Z,39.69
2023-01-29T09:51:04.956Z,38.69
2023-01-29T09:52:15.289Z,37.59
2023-01-29T09:53:23.257Z,36.55
2023-01-29T09:54:30.861Z,36.82
2023-01-29T09:55:38.610Z,35.39
2023-01-29T09:56:43.479Z,34.81
2023-01-29T09:57:51.506Z,34.26
2023-01-29T09:58:53.937Z,33.18
2023-01-29T09:59:57.236Z,32.74
2023-01-29T10:01:13.587Z,32.46
2023-01-29T10:02:37.947Z,31.88
2023-01-29T10:04:09.188Z,31.76
2023-01-29T10:05:25.879Z,30.88
2023-01-29T10:06:42.516Z,29.98
2023-01-29T10:08:14.701Z,29.58
2023-01-29T10:09:59.397Z,29.47
2023-01-29T10:11:11.811Z,29.79
2023-01-29T10:12:28.267Z,29.69
2023-01-29T10:13:44.783Z,30.75
2023-01-29T10:14:56.911Z,30.95
2023-01-29T10:16:15.348Z,30.80
2023-01-29T10:17:34.569Z,31.15
2023-01-29T10:19:17.331Z,30.87
2023-01-29T10:20:50.972Z,30.50
2023-01-29T10:22:07.559Z,30.00
2023-01-29T10:23:23.401Z,30.10
2023-01-29T10:24:37.725Z,31.55
2023-01-29T10:25:43.378Z,31.74
2023-01-29T10:26:46.938Z,31.40
2023-01-29T10:27:53.360Z,32.16
2023-01-29T10:28:58.970Z,31.92
2023-01-29T10:30:04.032Z,31.48
2023-01-29T10:31:15.610Z,30.80
2023-01-29T10:32:21.734Z,31.30
2023-01-29T10:33:48.845Z,30.55
2023-01-29T10:34:59.989Z,30.89
2023-01-29T10:36:07.125Z,30.40
2023-01-29T10:37:18.683Z,31.10
2023-01-29T10:38:47.887Z,30.12
2023-01-29T10:39:51.599Z,29.44
2023-01-29T10:40:59.558Z,29.70
2023-01-29T10:42:16.326Z,30.28
2023-01-29T10:43:29.411Z,29.82
2023-01-29T10:44:47.651Z,31.66
2023-01-29T10:45:59.117Z,32.75
2023-01-29T10:47:17.750Z,34.42
2023-01-29T10:48:45.981Z,33.89
2023-01-29T10:50:13.125Z,32.86
2023-01-29T10:51:28.936Z,34.12
2023-01-29T10:52:44.868Z,32.97
2023-01-29T10:54:02.157Z,31.83
2023-01-29T10:55:18.483Z,31.70
2023-01-29T10:56:53.850Z,32.21
2023-01-29T10:58:09.341Z,31.73
2023-01-29T10:59:26.531Z,30.99
2023-01-29T11:00:36.105Z,31.31
2023-01-29T11:01:39.743Z,31.09
2023-01-29T11:02:48.954Z,31.19
2023-01-29T11:03:59.500Z,31.54
2023-01-29T11:05:02.006Z,32.09
2023-01-29T11:06:13.904Z,33.16
2023-01-29T11:07:19.687Z,33.58
2023-01-29T11:08:28.395Z,32.82
2023-01-29T11:09:37.340Z,32.70
2023-01-29T11:10:46.245Z,32.98
2023-01-29T11:11:54.037Z,32.98
2023-01-29T11:12:58.984Z,33.79
2023-01-29T11:14:07.793Z,33.82
2023-01-29T11:15:19.683Z,34.47
2023-01-29T11:16:23.833Z,33.79
2023-01-29T11:17:26.762Z,33.88
2023-01-29T11:18:50.736Z,34.08
2023-01-29T11:19:56.616Z,33.99
2023-01-29T11:21:04.523Z,34.52
2023-01-29T11:22:15.116Z,34.12
2023-01-29T11:23:26.665Z,34.54
2023-01-29T11:24:31.053Z,34.62
2023-01-29T11:25:33.682Z,34.22
2023-01-29T11:26:40.863Z,32.86
2023-01-29T11:27:46.494Z,32.53
2023-01-29T11:28:51.047Z,32.26
2023-01-29T11:29:55.253Z,31.91
2023-01-29T11:30:57.945Z,32.05
2023-01-29T11:32:04.948Z,31.97
2023-01-29T11:33:13.291Z,32.78
2023-01-29T11:34:20.846Z,32.80
2023-01-29T11:35:26.382Z,32.56
2023-01-29T11:36:35.236Z,33.35
2023-01-29T11:37:40.709Z,32.30
2023-01-29T11:38:43.561Z,32.16
2023-01-29T11:39:47.656Z,31.38
2023-01-29T11:40:51.176Z,30.82
2023-01-29T11:41:56.943Z,30.85
2023-01-29T11:43:14.411Z,29.98
2023-01-29T11:44:28.992Z,29.54
2023-01-29T11:45:33.885Z,29.80
2023-01-29T11:46:41.072Z,31.12
2023-01-29T11:47:50.278Z,31.13
2023-01-29T11:48:59.217Z,31.44
2023-01-29T11:50:23.440Z,31.20
2023-01-29T11:51:28.759Z,31.45
2023-01-29T11:52:37.131Z,32.11
2023-01-29T11:53:43.214Z,31.29
2023-01-29T11:54:49.960Z,30.69
2023-01-29T11:55:55.933Z,31.58
2023-01-29T11:56:58.765Z,31.73
2023-01-29T11:58:05.637Z,31.54
2023-01-29T11:59:30.634Z,31.15
2023-01-29T12:00:37.183Z,30.83
2023-01-29T12:01:42.746Z,30.59
2023-01-29T12:02:50.430Z,32.38
2023-01-29T12:03:55.103Z,31.55
2023-01-29T12:05:01.890Z,31.95
2023-01-29T12:06:08.627Z,32.54
2023-01-29T12:07:16.021Z,32.83
2023-01-29T12:08:19.270Z,33.36
2023-01-29T12:09:27.328Z,33.60
2023-01-29T12:10:35.670Z,33.31
2023-01-29T12:11:38.435Z,32.55
2023-01-29T12:12:43.487Z,32.78
2023-01-29T12:13:55.908Z,32.53
2023-01-29T12:15:22.521Z,32.01
2023-01-29T12:16:29.501Z,31.87
2023-01-29T12:17:38.012Z,31.44
2023-01-29T12:18:44.807Z,31.43
2023-01-29T12:19:52.384Z,31.02
2023-01-29T12:20:58.820Z,31.85
2023-01-29T12:22:07.425Z,31.89
2023-01-29T12:23:29.414Z,32.21
2023-01-29T12:24:36.830Z,31.29
2023-01-29T12:25:46.363Z,32.80
2023-01-29T12:26:56.589Z,33.21
2023-01-29T12:28:06.039Z,32.69
2023-01-29T12:29:25.312Z,32.92
2023-01-29T12:30:35.809Z,33.40
2023-01-29T12:31:47.854Z,33.45
2023-01-29T12:32:55.933Z,33.92
2023-01-29T12:34:07.191Z,33.79
2023-01-29T12:35:18.670Z,33.79
2023-01-29T12:36:28.156Z,33.68
2023-01-29T12:37:44.846Z,32.75
2023-01-29T12:38:47.213Z,32.00
2023-01-29T12:39:52.254Z,32.51
2023-01-29T12:41:00.120Z,32.87
2023-01-29T12:42:10.588Z,32.94
2023-01-29T12:43:17.889Z,33.56
2023-01-29T12:44:25.519Z,32.85
2023-01-29T12:45:30.580Z,32.78
2023-01-29T12:46:41.019Z,33.09
2023-01-29T12:47:48.594Z,32.90
2023-01-29T12:48:53.113Z,33.03
2023-01-29T12:49:59.696Z,32.43
2023-01-29T12:51:09.247Z,33.14
2023-01-29T12:52:19.492Z,32.81
2023-01-29T12:53:29.340Z,33.07
2023-01-29T12:54:38.169Z,34.15
2023-01-29T12:55:45.005Z,33.12
2023-01-29T12:56:52.186Z,32.51
2023-01-29T12:57:58.293Z,32.51
2023-01-29T12:59:06.028Z,31.96
2023-01-29T13:00:14.164Z,32.54
2023-01-29T13:01:28.098Z,32.48
2023-01-29T13:02:39.813Z,32.26
2023-01-29T13:03:50.979Z,32.58
2023-01-29T13:05:01.848Z,32.23
2023-01-29T13:06:10.269Z,32.84
2023-01-29T13:07:16.915Z,33.62
2023-01-29T13:08:24.596Z,32.59
2023-01-29T13:09:30.525Z,32.47
2023-01-29T13:10:38.674Z,32.35
2023-01-29T13:11:46.923Z,32.90
2023-01-29T13:12:55.840Z,33.45
2023-01-29T13:14:01.493Z,32.96
2023-01-29T13:15:14.126Z,33.15
2023-01-29T13:16:22.417Z,33.64
2023-01-29T13:17:30.262Z,33.67
2023-01-29T13:18:46.512Z,33.88
2023-01-29T13:19:51.852Z,33.66
2023-01-29T13:20:56.039Z,33.57
2023-01-29T13:22:05.571Z,34.01
2023-01-29T13:23:20.221Z,35.15
2023-01-29T13:24:27.110Z,35.19
2023-01-29T13:25:32.246Z,34.23
2023-01-29T13:26:34.649Z,35.05
2023-01-29T13:27:38.776Z,34.84
2023-01-29T13:28:45.296Z,34.75
2023-01-29T13:29:48.940Z,35.64
2023-01-29T13:31:11.156Z,35.88
2023-01-29T13:32:23.452Z,35.82
2023-01-29T13:33:26.938Z,34.32
2023-01-29T13:34:32.885Z,34.54
2023-01-29T13:35:38.346Z,34.32
2023-01-29T13:36:45.550Z,33.76
2023-01-29T13:37:51.223Z,32.75
2023-01-29T13:39:01.389Z,32.49
2023-01-29T13:40:08.445Z,33.19
2023-01-29T13:41:13.615Z,34.02
2023-01-29T13:42:21.124Z,34.30
2023-01-29T13:43:24.676Z,35.93
2023-01-29T13:44:30.942Z,35.60
2023-01-29T13:45:36.889Z,36.69
2023-01-29T13:46:43.159Z,36.90
2023-01-29T13:47:47.174Z,36.79
2023-01-29T13:48:54.588Z,37.11
2023-01-29T13:50:01.279Z,37.21
2023-01-29T13:51:15.604Z,36.62
2023-01-29T13:52:30.126Z,36.93
2023-01-29T13:53:38.454Z,37.60
2023-01-29T13:54:49.494Z,38.34
2023-01-29T13:55:52.998Z,38.42
2023-01-29T13:57:01.463Z,38.11
2023-01-29T13:58:05.837Z,38.72
2023-01-29T13:59:23.039Z,38.93
2023-01-29T14:01:01.152Z,39.21
2023-01-29T14:02:22.347Z,38.45
2023-01-29T14:04:04.900Z,38.30
2023-01-29T14:05:40.938Z,38.17
2023-01-29T14:06:50.322Z,38.25
2023-01-29T14:07:54.441Z,38.02
2023-01-29T14:08:57.007Z,37.85
2023-01-29T14:10:14.462Z,37.80
2023-01-29T14:11:36.056Z,37.07
2023-01-29T14:12:46.385Z,36.66
2023-01-29T14:13:50.352Z,36.61
2023-01-29T14:15:04.633Z,36.28
2023-01-29T14:16:28.603Z,35.58
2023-01-29T14:17:32.821Z,35.54
2023-01-29T14:18:38.269Z,35.63
2023-01-29T14:19:47.621Z,35.16
2023-01-29T14:20:59.822Z,36.38
2023-01-29T14:22:02.814Z,38.04
2023-01-29T14:23:07.463Z,37.69
2023-01-29T14:24:17.928Z,37.55
2023-01-29T14:25:23.740Z,37.70
2023-01-29T14:26:33.415Z,37.51
2023-01-29T14:27:37.660Z,37.90
2023-01-29T14:28:42.894Z,37.85
2023-01-29T14:29:46.606Z,38.51
2023-01-29T14:30:51.277Z,38.73
2023-01-29T14:31:55.647Z,38.63
2023-01-29T14:33:00.173Z,39.35